sensor_id;sensor_type;location;lat;lon;timestamp;pressure;altitude;pressure_sealevel;temperature;humidity
79028;BME280;68427;48.476;19.102;2023-08-21T00:00:44;98072.72;;;18.72;83.45
79028;BME280;68427;48.476;19.102;2023-08-21T00:03:10;98075.84;;;18.69;83.29
79028;BME280;68427;48.476;19.102;2023-08-21T00:05:36;98071.69;;;18.62;84.01
79028;BME280;68427;48.476;19.102;2023-08-21T00:08:02;98067.66;;;18.59;83.88
79028;BME280;68427;48.476;19.102;2023-08-21T00:10:30;98059.13;;;18.57;83.54
79028;BME280;68427;48.476;19.102;2023-08-21T00:12:57;98066.16;;;18.51;84.19
79028;BME280;68427;48.476;19.102;2023-08-21T00:15:23;98065.81;;;18.48;83.81
79028;BME280;68427;48.476;19.102;2023-08-21T00:17:49;98075.63;;;18.47;83.76
79028;BME280;68427;48.476;19.102;2023-08-21T00:20:15;98073.53;;;18.49;83.18
79028;BME280;68427;48.476;19.102;2023-08-21T00:22:40;98071.69;;;18.50;83.06
79028;BME280;68427;48.476;19.102;2023-08-21T00:25:06;98072.97;;;18.47;83.12
79028;BME280;68427;48.476;19.102;2023-08-21T00:27:32;98079.66;;;18.38;84.41
79028;BME280;68427;48.476;19.102;2023-08-21T00:30:00;98081.50;;;18.38;83.77
79028;BME280;68427;48.476;19.102;2023-08-21T00:32:26;98082.53;;;18.37;83.86
79028;BME280;68427;48.476;19.102;2023-08-21T00:34:52;98080.91;;;18.35;84.07
79028;BME280;68427;48.476;19.102;2023-08-21T00:37:17;98087.25;;;18.34;84.41
79028;BME280;68427;48.476;19.102;2023-08-21T00:39:43;98084.84;;;18.33;84.32
79028;BME280;68427;48.476;19.102;2023-08-21T00:42:09;98087.47;;;18.33;84.25
79028;BME280;68427;48.476;19.102;2023-08-21T00:44:34;98082.66;;;18.30;83.82
79028;BME280;68427;48.476;19.102;2023-08-21T00:47:01;98091.06;;;18.27;84.51
79028;BME280;68427;48.476;19.102;2023-08-21T00:49:27;98092.91;;;18.26;84.45
79028;BME280;68427;48.476;19.102;2023-08-21T00:51:54;98088.31;;;18.22;84.43
79028;BME280;68427;48.476;19.102;2023-08-21T00:54:20;98084.72;;;18.16;84.89
79028;BME280;68427;48.476;19.102;2023-08-21T00:56:46;98094.06;;;18.19;84.81
79028;BME280;68427;48.476;19.102;2023-08-21T00:59:12;98087.94;;;18.18;84.74
79028;BME280;68427;48.476;19.102;2023-08-21T01:01:38;98088.41;;;18.15;84.83
79028;BME280;68427;48.476;19.102;2023-08-21T01:04:07;98085.16;;;18.13;84.70
79028;BME280;68427;48.476;19.102;2023-08-21T01:06:33;98095.44;;;18.09;84.77
79028;BME280;68427;48.476;19.102;2023-08-21T01:09:02;98097.38;;;18.02;84.75
79028;BME280;68427;48.476;19.102;2023-08-21T01:11:38;98104.53;;;18.02;84.94
79028;BME280;68427;48.476;19.102;2023-08-21T01:14:10;98101.28;;;18.00;84.33
79028;BME280;68427;48.476;19.102;2023-08-21T01:16:37;98105.66;;;17.94;84.71
79028;BME280;68427;48.476;19.102;2023-08-21T01:19:03;98111.97;;;17.93;85.06
79028;BME280;68427;48.476;19.102;2023-08-21T01:21:35;98114.19;;;17.96;85.08
79028;BME280;68427;48.476;19.102;2023-08-21T01:24:03;98114.78;;;17.98;84.82
79028;BME280;68427;48.476;19.102;2023-08-21T01:26:29;98116.25;;;17.94;84.59
79028;BME280;68427;48.476;19.102;2023-08-21T01:28:54;98112.22;;;17.91;84.63
79028;BME280;68427;48.476;19.102;2023-08-21T01:31:23;98108.66;;;17.86;84.02
79028;BME280;68427;48.476;19.102;2023-08-21T01:33:52;98106.88;;;17.80;84.20
79028;BME280;68427;48.476;19.102;2023-08-21T01:36:20;98102.81;;;17.77;84.91
79028;BME280;68427;48.476;19.102;2023-08-21T01:38:46;98109.63;;;17.73;84.99
79028;BME280;68427;48.476;19.102;2023-08-21T01:41:14;98110.28;;;17.68;84.64
79028;BME280;68427;48.476;19.102;2023-08-21T01:43:40;98110.50;;;17.67;85.55
79028;BME280;68427;48.476;19.102;2023-08-21T01:46:05;98103.59;;;17.66;85.95
79028;BME280;68427;48.476;19.102;2023-08-21T01:48:31;98107.84;;;17.67;85.26
79028;BME280;68427;48.476;19.102;2023-08-21T01:50:57;98109.31;;;17.63;85.31
79028;BME280;68427;48.476;19.102;2023-08-21T01:53:23;98104.47;;;17.60;85.74
79028;BME280;68427;48.476;19.102;2023-08-21T01:55:48;98107.13;;;17.60;85.37
79028;BME280;68427;48.476;19.102;2023-08-21T01:58:16;98110.81;;;17.59;85.12
79028;BME280;68427;48.476;19.102;2023-08-21T02:00:41;98102.75;;;17.54;85.44
79028;BME280;68427;48.476;19.102;2023-08-21T02:03:07;98109.06;;;17.53;85.68
79028;BME280;68427;48.476;19.102;2023-08-21T02:05:37;98108.50;;;17.51;85.29
79028;BME280;68427;48.476;19.102;2023-08-21T02:08:04;98117.69;;;17.48;85.42
79028;BME280;68427;48.476;19.102;2023-08-21T02:10:30;98112.81;;;17.45;85.44
79028;BME280;68427;48.476;19.102;2023-08-21T02:12:55;98114.31;;;17.41;85.43
79028;BME280;68427;48.476;19.102;2023-08-21T02:15:22;98111.16;;;17.32;85.60
79028;BME280;68427;48.476;19.102;2023-08-21T02:17:48;98113.44;;;17.28;85.97
79028;BME280;68427;48.476;19.102;2023-08-21T02:20:14;98106.97;;;17.24;85.86
79028;BME280;68427;48.476;19.102;2023-08-21T02:22:40;98102.94;;;17.22;85.65
79028;BME280;68427;48.476;19.102;2023-08-21T02:25:06;98094.19;;;17.21;85.60
79028;BME280;68427;48.476;19.102;2023-08-21T02:27:32;98089.69;;;17.22;85.96
79028;BME280;68427;48.476;19.102;2023-08-21T02:29:57;98088.69;;;17.23;85.64
79028;BME280;68427;48.476;19.102;2023-08-21T02:32:24;98089.91;;;17.20;85.61
79028;BME280;68427;48.476;19.102;2023-08-21T02:34:50;98089.91;;;17.20;85.04
79028;BME280;68427;48.476;19.102;2023-08-21T02:37:16;98086.69;;;17.18;85.21
79028;BME280;68427;48.476;19.102;2023-08-21T02:39:41;98085.97;;;17.11;85.77
79028;BME280;68427;48.476;19.102;2023-08-21T02:42:07;98089.25;;;17.06;85.90
79028;BME280;68427;48.476;19.102;2023-08-21T02:44:33;98089.94;;;17.02;86.26
79028;BME280;68427;48.476;19.102;2023-08-21T02:46:58;98087.53;;;17.00;86.38
79028;BME280;68427;48.476;19.102;2023-08-21T02:49:25;98092.22;;;16.98;86.12
79028;BME280;68427;48.476;19.102;2023-08-21T02:51:51;98082.75;;;16.91;86.88
79028;BME280;68427;48.476;19.102;2023-08-21T02:54:17;98080.50;;;16.88;87.12
79028;BME280;68427;48.476;19.102;2023-08-21T02:56:42;98078.09;;;16.86;87.44
79028;BME280;68427;48.476;19.102;2023-08-21T02:59:08;98076.41;;;16.92;87.65
79028;BME280;68427;48.476;19.102;2023-08-21T03:01:34;98080.66;;;16.93;86.63
79028;BME280;68427;48.476;19.102;2023-08-21T03:04:00;98084.00;;;16.88;86.16
79028;BME280;68427;48.476;19.102;2023-08-21T03:06:27;98084.13;;;16.93;85.10
79028;BME280;68427;48.476;19.102;2023-08-21T03:08:53;98081.09;;;16.90;84.81
79028;BME280;68427;48.476;19.102;2023-08-21T03:11:19;98079.13;;;16.85;85.40
79028;BME280;68427;48.476;19.102;2023-08-21T03:13:44;98085.31;;;16.79;85.45
79028;BME280;68427;48.476;19.102;2023-08-21T03:16:10;98081.88;;;16.72;84.89
79028;BME280;68427;48.476;19.102;2023-08-21T03:18:54;98089.31;;;16.63;85.11
79028;BME280;68427;48.476;19.102;2023-08-21T03:21:21;98089.31;;;16.63;85.70
79028;BME280;68427;48.476;19.102;2023-08-21T03:23:51;98089.06;;;16.64;85.01
79028;BME280;68427;48.476;19.102;2023-08-21T03:26:16;98089.72;;;16.60;85.42
79028;BME280;68427;48.476;19.102;2023-08-21T03:28:42;98093.41;;;16.59;86.13
79028;BME280;68427;48.476;19.102;2023-08-21T03:31:08;98088.72;;;16.61;86.18
79028;BME280;68427;48.476;19.102;2023-08-21T03:33:33;98086.88;;;16.61;86.34
79028;BME280;68427;48.476;19.102;2023-08-21T03:35:59;98092.97;;;16.62;85.63
79028;BME280;68427;48.476;19.102;2023-08-21T03:38:25;98101.94;;;16.61;85.87
79028;BME280;68427;48.476;19.102;2023-08-21T03:40:52;98104.13;;;16.64;86.07
79028;BME280;68427;48.476;19.102;2023-08-21T03:43:17;98112.97;;;16.58;85.99
79028;BME280;68427;48.476;19.102;2023-08-21T03:45:43;98110.72;;;16.55;87.52
79028;BME280;68427;48.476;19.102;2023-08-21T03:48:09;98109.75;;;16.49;87.51
79028;BME280;68427;48.476;19.102;2023-08-21T03:50:34;98108.16;;;16.48;86.97
79028;BME280;68427;48.476;19.102;2023-08-21T03:53:00;98113.66;;;16.47;87.04
79028;BME280;68427;48.476;19.102;2023-08-21T03:55:26;98114.91;;;16.44;87.06
79028;BME280;68427;48.476;19.102;2023-08-21T03:57:53;98121.22;;;16.43;86.93
79028;BME280;68427;48.476;19.102;2023-08-21T04:00:19;98119.97;;;16.46;86.63
79028;BME280;68427;48.476;19.102;2023-08-21T04:02:44;98121.78;;;16.45;86.37
79028;BME280;68427;48.476;19.102;2023-08-21T04:05:10;98119.38;;;16.44;87.59
79028;BME280;68427;48.476;19.102;2023-08-21T04:07:37;98118.16;;;16.46;87.58
79028;BME280;68427;48.476;19.102;2023-08-21T04:10:02;98116.09;;;16.48;87.81
79028;BME280;68427;48.476;19.102;2023-08-21T04:12:28;98120.34;;;16.49;87.89
79028;BME280;68427;48.476;19.102;2023-08-21T04:14:55;98114.84;;;16.51;88.53
79028;BME280;68427;48.476;19.102;2023-08-21T04:17:21;98113.38;;;16.55;87.50
79028;BME280;68427;48.476;19.102;2023-08-21T04:19:47;98127.19;;;16.57;87.33
79028;BME280;68427;48.476;19.102;2023-08-21T04:22:13;98124.50;;;16.63;87.25
79028;BME280;68427;48.476;19.102;2023-08-21T04:24:40;98126.69;;;16.67;86.86
79028;BME280;68427;48.476;19.102;2023-08-21T04:27:05;98129.50;;;16.72;86.90
79028;BME280;68427;48.476;19.102;2023-08-21T04:29:31;98145.75;;;16.75;86.30
79028;BME280;68427;48.476;19.102;2023-08-21T04:31:58;98141.47;;;16.74;86.63
79028;BME280;68427;48.476;19.102;2023-08-21T04:34:24;98139.28;;;16.71;87.23
79028;BME280;68427;48.476;19.102;2023-08-21T04:36:49;98133.59;;;16.68;87.43
79028;BME280;68427;48.476;19.102;2023-08-21T04:39:15;98134.59;;;16.73;87.28
79028;BME280;68427;48.476;19.102;2023-08-21T04:41:42;98131.94;;;16.73;87.46
79028;BME280;68427;48.476;19.102;2023-08-21T04:44:07;98130.69;;;16.76;87.47
79028;BME280;68427;48.476;19.102;2023-08-21T04:46:33;98144.38;;;16.73;88.37
79028;BME280;68427;48.476;19.102;2023-08-21T04:49:00;98142.25;;;16.81;87.76
79028;BME280;68427;48.476;19.102;2023-08-21T04:51:26;98144.84;;;16.88;87.26
79028;BME280;68427;48.476;19.102;2023-08-21T04:53:52;98146.41;;;16.96;87.41
79028;BME280;68427;48.476;19.102;2023-08-21T04:56:17;98149.19;;;17.01;87.20
79028;BME280;68427;48.476;19.102;2023-08-21T04:58:43;98152.34;;;17.10;86.83
79028;BME280;68427;48.476;19.102;2023-08-21T05:01:08;98152.28;;;17.16;86.82
79028;BME280;68427;48.476;19.102;2023-08-21T05:03:34;98146.53;;;17.19;87.22
79028;BME280;68427;48.476;19.102;2023-08-21T05:06:01;98157.50;;;17.23;87.83
79028;BME280;68427;48.476;19.102;2023-08-21T05:08:27;98155.56;;;17.30;87.89
79028;BME280;68427;48.476;19.102;2023-08-21T05:10:56;98151.59;;;17.39;87.74
79028;BME280;68427;48.476;19.102;2023-08-21T05:13:22;98159.03;;;17.49;88.01
79028;BME280;68427;48.476;19.102;2023-08-21T05:15:51;98164.59;;;17.59;87.89
79028;BME280;68427;48.476;19.102;2023-08-21T05:18:16;98165.47;;;17.71;87.76
79028;BME280;68427;48.476;19.102;2023-08-21T05:20:42;98155.97;;;17.82;87.41
79028;BME280;68427;48.476;19.102;2023-08-21T05:23:09;98146.81;;;17.97;87.22
79028;BME280;68427;48.476;19.102;2023-08-21T05:25:35;98148.78;;;18.13;86.85
79028;BME280;68427;48.476;19.102;2023-08-21T05:28:01;98144.81;;;18.34;86.53
79028;BME280;68427;48.476;19.102;2023-08-21T05:30:27;98142.41;;;18.56;85.50
79028;BME280;68427;48.476;19.102;2023-08-21T05:32:52;98154.22;;;18.84;84.59
79028;BME280;68427;48.476;19.102;2023-08-21T05:35:18;98151.41;;;19.14;83.11
79028;BME280;68427;48.476;19.102;2023-08-21T05:37:45;98151.56;;;19.48;82.25
79028;BME280;68427;48.476;19.102;2023-08-21T05:40:12;98148.38;;;19.74;81.31
79028;BME280;68427;48.476;19.102;2023-08-21T05:42:38;98155.03;;;20.05;80.22
79028;BME280;68427;48.476;19.102;2023-08-21T05:45:05;98146.03;;;20.40;79.21
79028;BME280;68427;48.476;19.102;2023-08-21T05:47:31;98153.00;;;20.75;76.97
79028;BME280;68427;48.476;19.102;2023-08-21T05:49:57;98160.22;;;21.19;75.91
79028;BME280;68427;48.476;19.102;2023-08-21T05:52:22;98158.97;;;21.65;73.97
79028;BME280;68427;48.476;19.102;2023-08-21T05:54:48;98146.63;;;22.13;72.65
79028;BME280;68427;48.476;19.102;2023-08-21T05:57:16;98144.88;;;22.56;70.97
79028;BME280;68427;48.476;19.102;2023-08-21T05:59:44;98148.38;;;23.04;69.66
79028;BME280;68427;48.476;19.102;2023-08-21T06:02:10;98146.47;;;23.53;67.37
79028;BME280;68427;48.476;19.102;2023-08-21T06:04:36;98146.28;;;23.90;65.83
79028;BME280;68427;48.476;19.102;2023-08-21T06:07:02;98145.81;;;24.08;65.02
79028;BME280;68427;48.476;19.102;2023-08-21T06:09:29;98150.94;;;24.51;64.31
79028;BME280;68427;48.476;19.102;2023-08-21T06:11:55;98148.66;;;25.14;62.03
79028;BME280;68427;48.476;19.102;2023-08-21T06:14:22;98142.63;;;25.53;60.97
79028;BME280;68427;48.476;19.102;2023-08-21T06:16:54;98140.41;;;26.10;58.72
79028;BME280;68427;48.476;19.102;2023-08-21T06:19:19;98145.66;;;26.60;57.40
79028;BME280;68427;48.476;19.102;2023-08-21T06:21:45;98129.28;;;26.85;56.14
79028;BME280;68427;48.476;19.102;2023-08-21T06:24:11;98135.75;;;27.08;54.74
79028;BME280;68427;48.476;19.102;2023-08-21T06:26:36;98125.16;;;27.41;54.02
79028;BME280;68427;48.476;19.102;2023-08-21T06:29:02;98132.44;;;27.78;52.86
79028;BME280;68427;48.476;19.102;2023-08-21T06:31:29;98130.94;;;27.91;52.58
79028;BME280;68427;48.476;19.102;2023-08-21T06:33:55;98133.72;;;28.38;50.38
79028;BME280;68427;48.476;19.102;2023-08-21T06:36:20;98134.50;;;28.57;49.49
79028;BME280;68427;48.476;19.102;2023-08-21T06:38:46;98142.81;;;28.75;49.60
79028;BME280;68427;48.476;19.102;2023-08-21T06:41:13;98138.53;;;28.88;48.92
79028;BME280;68427;48.476;19.102;2023-08-21T06:43:40;98145.25;;;29.18;48.27
79028;BME280;68427;48.476;19.102;2023-08-21T06:46:08;98140.97;;;29.31;48.02
79028;BME280;68427;48.476;19.102;2023-08-21T06:48:38;98145.88;;;29.79;47.86
79028;BME280;68427;48.476;19.102;2023-08-21T06:51:07;98135.53;;;29.72;47.65
79028;BME280;68427;48.476;19.102;2023-08-21T06:53:33;98135.53;;;30.17;46.38
79028;BME280;68427;48.476;19.102;2023-08-21T06:55:58;98144.47;;;30.71;45.08
79028;BME280;68427;48.476;19.102;2023-08-21T06:58:24;98142.03;;;30.84;44.99
79028;BME280;68427;48.476;19.102;2023-08-21T07:00:50;98134.44;;;31.43;43.04
79028;BME280;68427;48.476;19.102;2023-08-21T07:03:15;98139.91;;;32.04;42.01
79028;BME280;68427;48.476;19.102;2023-08-21T07:05:46;98139.84;;;32.56;40.67
79028;BME280;68427;48.476;19.102;2023-08-21T07:08:12;98131.59;;;31.92;41.88
79028;BME280;68427;48.476;19.102;2023-08-21T07:10:38;98137.75;;;33.00;40.97
79028;BME280;68427;48.476;19.102;2023-08-21T07:13:04;98130.84;;;33.71;39.27
79028;BME280;68427;48.476;19.102;2023-08-21T07:15:29;98134.69;;;34.12;38.38
79028;BME280;68427;48.476;19.102;2023-08-21T07:17:55;98140.47;;;34.56;37.79
79028;BME280;68427;48.476;19.102;2023-08-21T07:20:21;98135.22;;;34.84;36.86
79028;BME280;68427;48.476;19.102;2023-08-21T07:22:48;98139.56;;;35.34;35.76
79028;BME280;68427;48.476;19.102;2023-08-21T07:25:14;98135.75;;;35.51;35.65
79028;BME280;68427;48.476;19.102;2023-08-21T07:27:40;98130.97;;;35.73;34.87
79028;BME280;68427;48.476;19.102;2023-08-21T07:30:07;98127.22;;;36.33;34.17
79028;BME280;68427;48.476;19.102;2023-08-21T07:32:33;98126.06;;;37.10;32.90
79028;BME280;68427;48.476;19.102;2023-08-21T07:34:58;98122.09;;;37.43;32.32
79028;BME280;68427;48.476;19.102;2023-08-21T07:37:24;98130.13;;;37.52;31.41
79028;BME280;68427;48.476;19.102;2023-08-21T07:39:52;98124.28;;;36.86;33.04
79028;BME280;68427;48.476;19.102;2023-08-21T07:42:18;98126.41;;;37.25;31.85
79028;BME280;68427;48.476;19.102;2023-08-21T07:44:44;98133.81;;;37.79;31.28
79028;BME280;68427;48.476;19.102;2023-08-21T07:47:10;98130.22;;;38.14;30.29
79028;BME280;68427;48.476;19.102;2023-08-21T07:49:36;98128.72;;;38.16;30.18
79028;BME280;68427;48.476;19.102;2023-08-21T07:52:02;98130.94;;;38.30;28.88
79028;BME280;68427;48.476;19.102;2023-08-21T07:54:28;98135.41;;;38.61;29.71
79028;BME280;68427;48.476;19.102;2023-08-21T07:56:56;98135.19;;;37.89;30.48
79028;BME280;68427;48.476;19.102;2023-08-21T07:59:21;98127.06;;;38.77;28.95
79028;BME280;68427;48.476;19.102;2023-08-21T08:01:47;98131.63;;;38.46;28.44
79028;BME280;68427;48.476;19.102;2023-08-21T08:04:13;98128.28;;;38.14;29.20
79028;BME280;68427;48.476;19.102;2023-08-21T08:06:39;98124.03;;;37.97;29.34
79028;BME280;68427;48.476;19.102;2023-08-21T08:09:04;98120.94;;;38.18;28.67
79028;BME280;68427;48.476;19.102;2023-08-21T08:11:30;98131.31;;;38.09;29.58
79028;BME280;68427;48.476;19.102;2023-08-21T08:13:57;98130.41;;;38.44;28.49
79028;BME280;68427;48.476;19.102;2023-08-21T08:16:23;98123.16;;;39.85;26.81
79028;BME280;68427;48.476;19.102;2023-08-21T08:18:48;98126.16;;;40.81;25.17
79028;BME280;68427;48.476;19.102;2023-08-21T08:21:14;98118.44;;;41.01;24.69
79028;BME280;68427;48.476;19.102;2023-08-21T08:23:40;98114.31;;;41.29;24.83
79028;BME280;68427;48.476;19.102;2023-08-21T08:26:06;98113.38;;;41.73;24.22
79028;BME280;68427;48.476;19.102;2023-08-21T08:28:32;98117.53;;;42.97;22.44
79028;BME280;68427;48.476;19.102;2023-08-21T08:30:59;98116.13;;;43.84;20.83
79028;BME280;68427;48.476;19.102;2023-08-21T08:33:26;98111.63;;;42.59;21.88
79028;BME280;68427;48.476;19.102;2023-08-21T08:35:51;98112.72;;;42.12;22.50
79028;BME280;68427;48.476;19.102;2023-08-21T08:38:18;98108.41;;;43.40;20.52
79028;BME280;68427;48.476;19.102;2023-08-21T08:40:45;98105.59;;;43.65;20.56
79028;BME280;68427;48.476;19.102;2023-08-21T08:43:12;98096.34;;;44.04;19.46
79028;BME280;68427;48.476;19.102;2023-08-21T08:45:38;98088.69;;;43.41;19.82
79028;BME280;68427;48.476;19.102;2023-08-21T08:48:07;98104.72;;;44.52;18.21
79028;BME280;68427;48.476;19.102;2023-08-21T08:50:34;98095.34;;;44.88;18.81
79028;BME280;68427;48.476;19.102;2023-08-21T08:53:00;98100.16;;;45.21;17.08
79028;BME280;68427;48.476;19.102;2023-08-21T08:55:27;98091.19;;;44.61;17.86
79028;BME280;68427;48.476;19.102;2023-08-21T08:57:53;98089.00;;;44.38;19.36
79028;BME280;68427;48.476;19.102;2023-08-21T09:00:19;98088.78;;;43.02;18.99
79028;BME280;68427;48.476;19.102;2023-08-21T09:02:45;98082.50;;;42.37;19.78
79028;BME280;68427;48.476;19.102;2023-08-21T09:05:13;98081.72;;;42.47;19.60
79028;BME280;68427;48.476;19.102;2023-08-21T09:07:39;98080.53;;;42.94;20.38
79028;BME280;68427;48.476;19.102;2023-08-21T09:10:12;98080.81;;;43.43;20.13
79028;BME280;68427;48.476;19.102;2023-08-21T09:12:39;98083.13;;;44.29;19.15
79028;BME280;68427;48.476;19.102;2023-08-21T09:15:07;98061.50;;;44.69;18.34
79028;BME280;68427;48.476;19.102;2023-08-21T09:17:33;98065.94;;;44.07;18.89
79028;BME280;68427;48.476;19.102;2023-08-21T09:20:03;98057.34;;;44.47;17.55
79028;BME280;68427;48.476;19.102;2023-08-21T09:22:31;98056.91;;;44.97;17.63
79028;BME280;68427;48.476;19.102;2023-08-21T09:25:01;98052.09;;;44.63;18.27
79028;BME280;68427;48.476;19.102;2023-08-21T09:27:30;98056.75;;;45.11;19.23
79028;BME280;68427;48.476;19.102;2023-08-21T09:29:57;98053.31;;;44.06;19.37
79028;BME280;68427;48.476;19.102;2023-08-21T09:32:22;98044.50;;;44.71;20.06
79028;BME280;68427;48.476;19.102;2023-08-21T09:34:48;98045.78;;;44.62;19.51
79028;BME280;68427;48.476;19.102;2023-08-21T09:37:16;98045.50;;;44.91;19.19
79028;BME280;68427;48.476;19.102;2023-08-21T09:39:44;98043.53;;;43.91;20.87
79028;BME280;68427;48.476;19.102;2023-08-21T09:42:11;98038.22;;;44.67;18.89
79028;BME280;68427;48.476;19.102;2023-08-21T09:44:38;98039.94;;;45.33;18.47
79028;BME280;68427;48.476;19.102;2023-08-21T09:47:08;98034.88;;;45.58;18.53
79028;BME280;68427;48.476;19.102;2023-08-21T09:49:35;98038.19;;;45.46;18.03
79028;BME280;68427;48.476;19.102;2023-08-21T09:52:02;98033.00;;;44.79;20.25
79028;BME280;68427;48.476;19.102;2023-08-21T09:54:29;98024.84;;;43.39;20.12
79028;BME280;68427;48.476;19.102;2023-08-21T09:57:01;98027.78;;;42.82;20.07
79028;BME280;68427;48.476;19.102;2023-08-21T09:59:28;98024.53;;;43.23;19.96
79028;BME280;68427;48.476;19.102;2023-08-21T10:01:54;98019.44;;;43.03;20.29
79028;BME280;68427;48.476;19.102;2023-08-21T10:04:22;98017.09;;;43.02;20.10
79028;BME280;68427;48.476;19.102;2023-08-21T10:06:48;98022.41;;;43.59;20.78
79028;BME280;68427;48.476;19.102;2023-08-21T10:09:16;98020.97;;;44.03;20.60
79028;BME280;68427;48.476;19.102;2023-08-21T10:11:42;98015.63;;;44.30;19.75
79028;BME280;68427;48.476;19.102;2023-08-21T10:14:10;98019.16;;;44.79;19.13
79028;BME280;68427;48.476;19.102;2023-08-21T10:16:36;98007.72;;;43.80;19.23
79028;BME280;68427;48.476;19.102;2023-08-21T10:19:03;98008.31;;;44.58;19.76
79028;BME280;68427;48.476;19.102;2023-08-21T10:21:34;98009.72;;;44.73;19.06
79028;BME280;68427;48.476;19.102;2023-08-21T10:24:00;98007.69;;;45.49;18.01
79028;BME280;68427;48.476;19.102;2023-08-21T10:26:26;98008.06;;;45.52;17.62
79028;BME280;68427;48.476;19.102;2023-08-21T10:28:54;98003.66;;;44.89;18.25
79028;BME280;68427;48.476;19.102;2023-08-21T10:31:32;98002.28;;;44.67;18.84
79028;BME280;68427;48.476;19.102;2023-08-21T10:33:59;97998.41;;;44.12;17.77
79028;BME280;68427;48.476;19.102;2023-08-21T10:37:03;97997.13;;;45.41;18.55
79028;BME280;68427;48.476;19.102;2023-08-21T10:39:31;98001.09;;;46.48;17.65
79028;BME280;68427;48.476;19.102;2023-08-21T10:42:01;97998.72;;;46.47;17.28
79028;BME280;68427;48.476;19.102;2023-08-21T10:44:48;98003.91;;;45.36;18.50
79028;BME280;68427;48.476;19.102;2023-08-21T10:47:19;98000.75;;;45.92;18.45
79028;BME280;68427;48.476;19.102;2023-08-21T10:49:47;97994.53;;;46.11;17.65
79028;BME280;68427;48.476;19.102;2023-08-21T10:52:13;97993.38;;;45.58;17.94
79028;BME280;68427;48.476;19.102;2023-08-21T10:54:44;97996.25;;;46.29;18.43
79028;BME280;68427;48.476;19.102;2023-08-21T10:57:10;97989.22;;;45.97;19.78
79028;BME280;68427;48.476;19.102;2023-08-21T10:59:35;97988.25;;;46.34;17.53
79028;BME280;68427;48.476;19.102;2023-08-21T11:02:01;97984.16;;;45.34;18.33
79028;BME280;68427;48.476;19.102;2023-08-21T11:04:28;97976.97;;;46.22;18.43
79028;BME280;68427;48.476;19.102;2023-08-21T11:06:54;97985.16;;;46.76;16.89
79028;BME280;68427;48.476;19.102;2023-08-21T11:09:19;97976.53;;;46.70;16.54
79028;BME280;68427;48.476;19.102;2023-08-21T11:11:45;97971.66;;;46.07;16.84
79028;BME280;68427;48.476;19.102;2023-08-21T11:14:11;97968.13;;;46.30;17.55
79028;BME280;68427;48.476;19.102;2023-08-21T11:16:36;97976.78;;;45.24;17.54
79028;BME280;68427;48.476;19.102;2023-08-21T11:19:03;97981.25;;;46.03;17.76
79028;BME280;68427;48.476;19.102;2023-08-21T11:21:32;97976.50;;;44.77;18.08
79028;BME280;68427;48.476;19.102;2023-08-21T11:23:58;97970.22;;;45.11;17.43
79028;BME280;68427;48.476;19.102;2023-08-21T11:26:25;97979.94;;;44.02;20.45
79028;BME280;68427;48.476;19.102;2023-08-21T11:28:50;97971.03;;;43.79;19.29
79028;BME280;68427;48.476;19.102;2023-08-21T11:31:16;97964.28;;;44.74;19.16
79028;BME280;68427;48.476;19.102;2023-08-21T11:33:48;97968.22;;;44.80;18.94
79028;BME280;68427;48.476;19.102;2023-08-21T11:36:14;97961.16;;;45.10;18.89
79028;BME280;68427;48.476;19.102;2023-08-21T11:38:42;97967.06;;;44.78;18.76
79028;BME280;68427;48.476;19.102;2023-08-21T11:41:07;97955.59;;;44.34;20.38
79028;BME280;68427;48.476;19.102;2023-08-21T11:43:35;97961.66;;;44.22;20.47
79028;BME280;68427;48.476;19.102;2023-08-21T11:46:01;97962.94;;;44.10;19.79
79028;BME280;68427;48.476;19.102;2023-08-21T11:48:27;97965.72;;;44.07;18.01
79028;BME280;68427;48.476;19.102;2023-08-21T11:50:53;97958.06;;;43.73;19.21
79028;BME280;68427;48.476;19.102;2023-08-21T11:53:32;97960.09;;;42.38;20.73
79028;BME280;68427;48.476;19.102;2023-08-21T11:56:01;97961.66;;;42.57;20.19
79028;BME280;68427;48.476;19.102;2023-08-21T11:58:27;97956.56;;;42.01;19.71
79028;BME280;68427;48.476;19.102;2023-08-21T12:00:53;97956.81;;;41.39;21.02
79028;BME280;68427;48.476;19.102;2023-08-21T12:03:19;97955.91;;;40.44;21.37
79028;BME280;68427;48.476;19.102;2023-08-21T12:05:45;97956.72;;;39.62;22.79
79028;BME280;68427;48.476;19.102;2023-08-21T12:08:10;97955.22;;;40.06;22.98
79028;BME280;68427;48.476;19.102;2023-08-21T12:10:36;97954.19;;;40.25;23.03
79028;BME280;68427;48.476;19.102;2023-08-21T12:13:04;97957.59;;;40.63;21.22
79028;BME280;68427;48.476;19.102;2023-08-21T12:15:29;97954.47;;;40.64;20.85
79028;BME280;68427;48.476;19.102;2023-08-21T12:17:55;97951.69;;;40.60;20.34
79028;BME280;68427;48.476;19.102;2023-08-21T12:20:21;97958.13;;;40.27;19.84
79028;BME280;68427;48.476;19.102;2023-08-21T12:22:46;97944.59;;;40.01;20.65
79028;BME280;68427;48.476;19.102;2023-08-21T12:25:13;97945.59;;;40.30;21.17
79028;BME280;68427;48.476;19.102;2023-08-21T12:27:39;97936.72;;;39.99;21.74
79028;BME280;68427;48.476;19.102;2023-08-21T12:30:07;97937.78;;;40.35;22.14
79028;BME280;68427;48.476;19.102;2023-08-21T12:32:33;97942.63;;;40.53;21.82
79028;BME280;68427;48.476;19.102;2023-08-21T12:34:58;97938.25;;;40.41;20.90
79028;BME280;68427;48.476;19.102;2023-08-21T12:37:24;97934.34;;;39.57;20.85
79028;BME280;68427;48.476;19.102;2023-08-21T12:39:51;97935.50;;;38.61;23.30
79028;BME280;68427;48.476;19.102;2023-08-21T12:42:16;97934.00;;;39.62;22.84
79028;BME280;68427;48.476;19.102;2023-08-21T12:44:42;97934.44;;;40.08;21.80
79028;BME280;68427;48.476;19.102;2023-08-21T12:47:09;97935.81;;;39.84;21.47